createdAt,value
2019-03-19T00:03:51.943Z,4.00
2019-03-19T00:08:55.673Z,4.00
2019-03-19T00:13:59.381Z,4.00
2019-03-19T00:19:10.033Z,4.00
2019-03-19T00:24:13.976Z,3.90
2019-03-19T00:29:17.950Z,3.80
2019-03-19T00:34:21.686Z,3.80
2019-03-19T00:39:25.385Z,3.70
2019-03-19T00:44:29.099Z,3.70
2019-03-19T00:49:32.837Z,3.60
2019-03-19T00:54:36.549Z,3.60
2019-03-19T00:59:40.523Z,3.60
2019-03-19T01:04:44.238Z,3.50
2019-03-19T01:09:48.305Z,3.40
2019-03-19T01:14:52.274Z,3.40
2019-03-19T01:19:56.262Z,3.50
2019-03-19T01:24:59.977Z,3.50
2019-03-19T01:30:03.942Z,3.50
2019-03-19T01:35:08.141Z,3.50
2019-03-19T01:40:12.034Z,3.30
2019-03-19T01:45:15.828Z,3.10
2019-03-19T01:50:19.779Z,3.00
2019-03-19T01:55:25.553Z,3.00
2019-03-19T02:00:28.920Z,3.10
2019-03-19T02:05:32.616Z,3.20
2019-03-19T02:10:36.402Z,3.20
2019-03-19T02:15:40.134Z,3.20
2019-03-19T02:20:44.090Z,3.10
2019-03-19T02:25:47.825Z,3.20
2019-03-19T02:30:51.851Z,3.10
2019-03-19T02:35:55.675Z,3.20
2019-03-19T02:40:59.372Z,3.30
2019-03-19T02:46:03.103Z,3.30
2019-03-19T02:51:06.813Z,3.30
2019-03-19T02:56:10.785Z,3.20
2019-03-19T03:01:14.875Z,3.20
2019-03-19T03:06:18.635Z,3.20
2019-03-19T03:11:22.392Z,3.20
2019-03-19T03:16:26.124Z,3.20
2019-03-19T03:21:29.830Z,3.20
2019-03-19T03:26:47.028Z,3.20
2019-03-19T03:31:39.350Z,3.30
2019-03-19T03:36:43.131Z,3.20
2019-03-19T03:41:47.095Z,3.20
2019-03-19T03:46:50.826Z,3.20
2019-03-19T03:51:54.622Z,3.10
2019-03-19T03:57:02.585Z,3.00
2019-03-19T04:02:10.208Z,3.10
2019-03-19T04:07:13.927Z,2.90
2019-03-19T04:12:17.649Z,2.80
2019-03-19T04:17:21.360Z,2.80
2019-03-19T04:22:25.082Z,2.80
2019-03-19T04:27:29.132Z,2.80
2019-03-19T04:32:32.911Z,2.70
2019-03-19T04:37:36.623Z,2.70
2019-03-19T04:42:40.407Z,2.70
2019-03-19T04:47:44.383Z,2.70
2019-03-19T04:52:48.363Z,2.70
2019-03-19T04:57:52.332Z,2.60
2019-03-19T05:03:00.191Z,2.60
2019-03-19T05:08:03.970Z,2.50
2019-03-19T05:13:07.692Z,2.50
2019-03-19T05:18:11.388Z,2.50
2019-03-19T05:23:15.345Z,2.50
2019-03-19T05:28:19.110Z,2.50
2019-03-19T05:33:22.840Z,2.30
2019-03-19T05:38:27.904Z,2.30
2019-03-19T05:43:31.614Z,2.30
2019-03-19T05:48:35.582Z,2.30
2019-03-19T05:53:41.367Z,2.20
2019-03-19T05:58:45.086Z,2.20
2019-03-19T06:03:48.804Z,2.40
2019-03-19T06:08:52.789Z,2.40
2019-03-19T06:13:56.823Z,2.50
2019-03-19T06:19:00.626Z,2.60
2019-03-19T06:24:04.402Z,2.60
2019-03-19T06:29:08.111Z,2.70
2019-03-19T06:34:11.826Z,2.80
2019-03-19T06:39:15.783Z,3.10
2019-03-19T06:44:19.742Z,3.80
2019-03-19T06:49:23.451Z,4.10
2019-03-19T06:54:27.151Z,4.70
2019-03-19T06:59:30.856Z,4.70
2019-03-19T07:04:34.555Z,4.30
2019-03-19T07:09:41.542Z,4.40
2019-03-19T07:14:45.516Z,4.40
2019-03-19T07:19:49.215Z,4.70
2019-03-19T07:24:52.926Z,4.60
2019-03-19T07:29:56.693Z,4.50
2019-03-19T07:35:00.435Z,4.50
2019-03-19T07:40:05.232Z,4.80
2019-03-19T07:45:11.624Z,4.90
2019-03-19T07:50:16.127Z,4.80
2019-03-19T07:55:19.836Z,4.70
2019-03-19T08:00:23.867Z,4.80
2019-03-19T08:05:33.053Z,4.90
2019-03-19T08:10:33.003Z,4.90
2019-03-19T08:15:36.698Z,4.80
2019-03-19T08:20:40.408Z,4.70
2019-03-19T08:25:44.378Z,4.60
2019-03-19T08:30:48.083Z,4.80
2019-03-19T08:35:51.798Z,4.70
2019-03-19T08:40:55.603Z,5.20
2019-03-19T08:45:59.404Z,5.50
2019-03-19T08:51:03.343Z,5.00
2019-03-19T08:56:07.060Z,5.00
2019-03-19T09:01:11.114Z,5.10
2019-03-19T09:06:14.821Z,6.00
2019-03-19T09:11:18.520Z,6.20
2019-03-19T09:16:22.473Z,6.90
2019-03-19T09:21:26.167Z,7.30
2019-03-19T09:26:29.894Z,6.90
2019-03-19T09:31:33.602Z,6.50
2019-03-19T09:36:37.314Z,6.90
2019-03-19T09:41:41.284Z,7.40
2019-03-19T09:46:45.004Z,7.60
2019-03-19T09:51:48.711Z,7.90
2019-03-19T09:56:57.447Z,8.20
2019-03-19T10:02:01.167Z,7.90
2019-03-19T10:07:06.340Z,8.20
2019-03-19T10:12:10.402Z,6.70
2019-03-19T10:17:14.191Z,7.40
2019-03-19T10:22:17.905Z,7.90
2019-03-19T10:27:21.612Z,7.20
2019-03-19T10:32:25.566Z,8.30
2019-03-19T10:37:29.299Z,8.20
2019-03-19T10:42:33.006Z,8.40
2019-03-19T10:47:36.706Z,8.80
2019-03-19T10:52:40.410Z,8.80
2019-03-19T10:57:44.259Z,8.40
2019-03-19T11:02:48.103Z,9.20
2019-03-19T11:07:51.888Z,9.10
2019-03-19T11:12:55.854Z,9.20
2019-03-19T11:17:59.808Z,9.30
2019-03-19T11:23:03.517Z,9.40
2019-03-19T11:28:08.038Z,10.20
2019-03-19T11:33:12.080Z,10.30
2019-03-19T11:38:16.052Z,10.40
2019-03-19T11:43:20.009Z,10.60
2019-03-19T11:48:23.711Z,10.70
2019-03-19T11:53:27.421Z,10.70
2019-03-19T11:58:31.120Z,11.00
2019-03-19T12:03:34.917Z,11.10
2019-03-19T12:08:38.888Z,11.10
2019-03-19T12:13:42.618Z,11.00
2019-03-19T12:18:46.352Z,10.80
2019-03-19T12:23:50.330Z,11.10
2019-03-19T12:28:54.028Z,11.10
2019-03-19T12:33:57.743Z,10.20
2019-03-19T12:39:01.715Z,9.60
2019-03-19T12:44:05.499Z,9.30
2019-03-19T12:49:09.460Z,9.60
2019-03-19T12:54:13.163Z,8.90
2019-03-19T12:59:20.469Z,9.10
2019-03-19T13:04:22.572Z,10.20
2019-03-19T13:09:26.346Z,10.20
2019-03-19T13:14:30.059Z,9.60
2019-03-19T13:19:33.759Z,9.00
2019-03-19T13:24:37.455Z,8.50
2019-03-19T13:29:41.151Z,8.10
2019-03-19T13:34:44.868Z,8.00
2019-03-19T13:39:48.568Z,8.00
2019-03-19T13:44:52.270Z,9.30
2019-03-19T13:49:55.968Z,9.80
2019-03-19T13:54:59.675Z,8.80
2019-03-19T14:00:03.761Z,8.40
2019-03-19T14:05:09.056Z,8.70
2019-03-19T14:10:13.190Z,9.60
2019-03-19T14:15:16.992Z,9.20
2019-03-19T14:20:20.823Z,8.70
2019-03-19T14:25:25.583Z,8.40
2019-03-19T14:30:29.276Z,8.20
2019-03-19T14:35:37.599Z,8.40
2019-03-19T14:40:39.620Z,8.30
2019-03-19T14:45:43.311Z,8.30
2019-03-19T14:50:47.003Z,8.30
2019-03-19T14:55:50.788Z,8.40
2019-03-19T15:00:54.491Z,8.40
2019-03-19T15:05:58.190Z,8.90
2019-03-19T15:11:02.145Z,9.40
2019-03-19T15:16:06.787Z,9.20
2019-03-19T15:21:10.501Z,8.90
2019-03-19T15:26:14.215Z,8.40
2019-03-19T15:31:17.956Z,8.00
2019-03-19T15:36:21.935Z,7.80
2019-03-19T15:41:25.703Z,7.50
2019-03-19T15:46:29.419Z,7.30
2019-03-19T15:51:33.519Z,7.20
2019-03-19T15:56:37.208Z,7.00
2019-03-19T16:01:41.364Z,6.80
2019-03-19T16:06:45.377Z,6.80
2019-03-19T16:11:49.167Z,6.70
2019-03-19T16:16:52.963Z,7.00
2019-03-19T16:21:56.924Z,7.20
2019-03-19T16:27:00.688Z,7.30
2019-03-19T16:32:04.471Z,7.40
2019-03-19T16:37:08.440Z,7.30
2019-03-19T16:42:14.238Z,7.30
2019-03-19T16:47:17.946Z,7.10
2019-03-19T16:52:21.651Z,7.10
2019-03-19T16:57:25.454Z,7.00
2019-03-19T17:02:29.226Z,6.70
2019-03-19T17:07:33.536Z,6.40
2019-03-19T17:12:37.259Z,6.00
2019-03-19T17:17:42.158Z,5.60
2019-03-19T17:22:45.974Z,5.40
2019-03-19T17:27:49.842Z,5.30
2019-03-19T17:32:53.756Z,5.20
2019-03-19T17:37:57.908Z,5.20
2019-03-19T17:43:02.701Z,5.00
2019-03-19T17:48:15.626Z,4.90
2019-03-19T17:53:11.926Z,4.80
2019-03-19T17:58:15.636Z,4.60
2019-03-19T18:03:19.394Z,4.30
2019-03-19T18:08:23.120Z,4.10
2019-03-19T18:13:26.848Z,3.90
2019-03-19T18:18:30.646Z,3.80
2019-03-19T18:23:34.384Z,3.70
2019-03-19T18:28:38.282Z,3.60
2019-03-19T18:33:42.146Z,3.60
2019-03-19T18:38:45.951Z,3.50
2019-03-19T18:43:49.934Z,3.20
2019-03-19T18:48:53.659Z,3.10
2019-03-19T18:53:57.371Z,3.10
2019-03-19T18:59:01.343Z,2.90
2019-03-19T19:04:05.264Z,2.70
2019-03-19T19:09:09.585Z,2.30
2019-03-19T19:14:13.318Z,2.00
2019-03-19T19:19:17.025Z,1.80
2019-03-19T19:24:20.756Z,1.80
2019-03-19T19:29:24.462Z,1.60
2019-03-19T19:34:28.175Z,1.70
2019-03-19T19:39:31.917Z,1.70
2019-03-19T19:44:35.635Z,1.80
2019-03-19T19:49:39.917Z,1.80
2019-03-19T19:54:43.656Z,1.70
2019-03-19T19:59:47.374Z,1.50
2019-03-19T20:05:02.344Z,1.50
2019-03-19T20:09:57.472Z,1.40
2019-03-19T20:15:01.192Z,1.20
2019-03-19T20:20:05.856Z,1.00
2019-03-19T20:25:09.967Z,0.80
2019-03-19T20:30:15.844Z,0.60
2019-03-19T20:35:19.651Z,0.50
2019-03-19T20:40:23.441Z,0.50
2019-03-19T20:45:27.168Z,0.40
2019-03-19T20:50:30.913Z,0.20
2019-03-19T20:55:34.924Z,0.20
2019-03-19T21:00:38.647Z,0.00
2019-03-19T21:05:42.387Z,0.00
2019-03-19T21:10:46.212Z,-0.10
2019-03-19T21:15:49.952Z,-0.10
2019-03-19T21:20:53.668Z,-0.20
2019-03-19T21:25:59.466Z,-0.30
2019-03-19T21:31:03.393Z,-0.40
2019-03-19T21:36:07.216Z,-0.40
2019-03-19T21:41:11.299Z,-0.60
2019-03-19T21:46:15.023Z,-0.60
2019-03-19T21:51:18.731Z,-0.70
2019-03-19T21:56:22.453Z,-0.80
2019-03-19T22:01:26.159Z,-0.90
2019-03-19T22:06:29.879Z,-0.90
2019-03-19T22:11:33.578Z,-0.90
2019-03-19T22:16:37.287Z,-0.90
2019-03-19T22:21:41.008Z,-1.00
2019-03-19T22:26:44.997Z,-1.10
2019-03-19T22:31:48.742Z,-1.10
2019-03-19T22:36:52.708Z,-1.20
2019-03-19T22:41:56.432Z,-1.40
2019-03-19T22:47:00.223Z,-1.40
2019-03-19T22:52:03.952Z,-1.50
2019-03-19T22:57:07.675Z,-1.50
2019-03-19T23:02:11.495Z,-1.50
2019-03-19T23:07:15.195Z,-1.50
2019-03-19T23:12:18.939Z,-1.60
2019-03-19T23:17:22.754Z,-1.60
2019-03-19T23:22:26.499Z,-1.70
2019-03-19T23:27:32.939Z,-1.50
2019-03-19T23:32:36.658Z,-1.50
2019-03-19T23:37:40.390Z,-1.60
2019-03-19T23:42:44.361Z,-1.60
2019-03-19T23:47:48.303Z,-1.70
2019-03-19T23:52:52.095Z,-1.80
2019-03-19T23:57:55.813Z,-1.90
